createdAt,value
2023-03-26T00:02:03.263Z,68.30
2023-03-26T00:04:33.527Z,68.30
2023-03-26T00:07:01.744Z,68.70
2023-03-26T00:09:30.948Z,68.70
2023-03-26T00:11:58.753Z,68.60
2023-03-26T00:14:26.835Z,68.80
2023-03-26T00:16:54.707Z,68.70
2023-03-26T00:19:22.733Z,68.50
2023-03-26T00:21:51.472Z,68.60
2023-03-26T00:24:19.293Z,69.20
2023-03-26T00:26:53.118Z,68.80
2023-03-26T00:29:22.719Z,69.20
2023-03-26T00:31:50.518Z,69.10
2023-03-26T00:34:19.132Z,69.50
2023-03-26T00:36:47.741Z,69.30
2023-03-26T00:39:17.565Z,69.60
2023-03-26T00:41:45.414Z,69.70
2023-03-26T00:44:14.611Z,69.80
2023-03-26T00:46:42.660Z,70.00
2023-03-26T00:49:14.493Z,70.00
2023-03-26T00:51:42.768Z,70.70
2023-03-26T00:54:10.934Z,70.00
2023-03-26T00:56:38.995Z,69.80
2023-03-26T00:59:09.070Z,70.10
2023-03-26T01:01:38.440Z,69.40
2023-03-26T01:04:27.412Z,69.70
2023-03-26T01:06:56.463Z,68.80
2023-03-26T01:09:32.765Z,68.40
2023-03-26T01:12:02.657Z,68.70
2023-03-26T01:14:31.205Z,68.40
2023-03-26T01:17:02.790Z,68.10
2023-03-26T01:19:38.348Z,68.20
2023-03-26T01:22:09.488Z,68.20
2023-03-26T01:24:38.744Z,68.30
2023-03-26T01:27:17.557Z,68.30
2023-03-26T01:29:52.712Z,67.90
2023-03-26T01:32:58.602Z,67.80
2023-03-26T01:35:35.508Z,67.80
2023-03-26T01:38:11.683Z,67.70
2023-03-26T01:40:49.422Z,67.50
2023-03-26T01:43:33.082Z,67.00
2023-03-26T01:46:04.600Z,67.70
2023-03-26T01:48:36.140Z,68.20
2023-03-26T01:51:04.341Z,68.20
2023-03-26T01:53:33.324Z,68.70
2023-03-26T01:56:12.736Z,68.80
2023-03-26T01:58:51.162Z,69.10
2023-03-26T02:01:27.684Z,69.40
2023-03-26T02:04:03.294Z,69.50
2023-03-26T02:06:40.509Z,70.00
2023-03-26T02:09:11.705Z,70.10
2023-03-26T02:11:41.989Z,70.40
2023-03-26T02:14:10.979Z,70.70
2023-03-26T02:16:38.876Z,70.70
2023-03-26T02:19:15.612Z,70.80
2023-03-26T02:21:43.826Z,70.50
2023-03-26T02:24:11.735Z,71.20
2023-03-26T02:26:41.177Z,71.20
2023-03-26T02:29:13.474Z,71.30
2023-03-26T02:31:43.912Z,72.30
2023-03-26T02:34:11.753Z,71.90
2023-03-26T02:36:43.742Z,71.90
2023-03-26T02:39:11.932Z,71.00
2023-03-26T02:41:41.471Z,71.00
2023-03-26T02:44:11.885Z,71.40
2023-03-26T02:47:05.961Z,71.30
2023-03-26T02:49:52.302Z,71.10
2023-03-26T02:52:53.318Z,71.20
2023-03-26T02:55:21.114Z,71.30
2023-03-26T02:57:52.206Z,71.50
2023-03-26T03:00:23.149Z,71.50
2023-03-26T03:03:26.104Z,71.60
2023-03-26T03:06:00.258Z,71.50
2023-03-26T03:08:39.492Z,71.70
2023-03-26T03:11:26.061Z,71.70
2023-03-26T03:13:55.642Z,71.80
2023-03-26T03:16:26.231Z,71.50
2023-03-26T03:18:57.465Z,71.50
2023-03-26T03:21:30.752Z,71.50
2023-03-26T03:23:59.756Z,71.40
2023-03-26T03:26:30.446Z,71.20
2023-03-26T03:29:04.140Z,70.80
2023-03-26T03:31:32.060Z,70.80
2023-03-26T03:34:04.504Z,70.70
2023-03-26T03:36:38.276Z,70.90
2023-03-26T03:39:13.322Z,70.90
2023-03-26T03:41:41.289Z,71.40
2023-03-26T03:44:15.419Z,72.00
2023-03-26T03:46:43.633Z,71.70
2023-03-26T03:49:11.635Z,71.70
2023-03-26T03:51:39.466Z,71.90
2023-03-26T03:54:16.713Z,71.30
2023-03-26T03:56:48.712Z,71.40
2023-03-26T03:59:37.966Z,71.70
2023-03-26T04:02:09.388Z,71.80
2023-03-26T04:04:46.281Z,71.40
2023-03-26T04:07:16.751Z,72.00
2023-03-26T04:10:03.941Z,71.30
2023-03-26T04:12:51.730Z,71.60
2023-03-26T04:15:23.868Z,71.60
2023-03-26T04:17:52.044Z,71.00
2023-03-26T04:20:21.919Z,71.30
2023-03-26T04:22:52.669Z,71.40
2023-03-26T04:25:22.280Z,72.00
2023-03-26T04:27:58.397Z,72.00
2023-03-26T04:30:46.462Z,71.80
2023-03-26T04:33:33.196Z,71.70
2023-03-26T04:36:02.662Z,71.80
2023-03-26T04:38:40.967Z,71.80
2023-03-26T04:41:12.445Z,71.20
2023-03-26T04:43:50.295Z,71.00
2023-03-26T04:46:36.376Z,70.50
2023-03-26T04:49:11.492Z,71.50
2023-03-26T04:51:41.768Z,71.60
2023-03-26T04:54:24.689Z,71.60
2023-03-26T04:57:01.029Z,71.60
2023-03-26T04:59:41.147Z,71.00
2023-03-26T05:02:13.991Z,71.50
2023-03-26T05:05:02.708Z,71.10
2023-03-26T05:07:33.072Z,70.90
2023-03-26T05:10:05.415Z,71.10
2023-03-26T05:12:36.937Z,70.50
2023-03-26T05:15:13.231Z,70.10
2023-03-26T05:18:08.664Z,70.30
2023-03-26T05:20:46.315Z,70.20
2023-03-26T05:23:14.358Z,70.30
2023-03-26T05:25:46.969Z,70.20
2023-03-26T05:28:19.156Z,69.50
2023-03-26T05:30:54.426Z,70.50
2023-03-26T05:33:25.739Z,70.30
2023-03-26T05:36:02.133Z,70.30
2023-03-26T05:38:32.449Z,69.70
2023-03-26T05:41:02.528Z,69.70
2023-03-26T05:43:31.398Z,69.60
2023-03-26T05:46:12.312Z,69.50
2023-03-26T05:48:41.639Z,69.20
2023-03-26T05:51:09.654Z,69.30
2023-03-26T05:53:42.491Z,69.20
2023-03-26T05:56:11.765Z,69.20
2023-03-26T05:59:18.104Z,68.80
2023-03-26T06:02:04.771Z,69.00
2023-03-26T06:04:52.528Z,69.90
2023-03-26T06:07:20.544Z,69.50
2023-03-26T06:10:02.568Z,69.80
2023-03-26T06:12:30.586Z,69.70
2023-03-26T06:14:58.496Z,69.30
2023-03-26T06:17:41.850Z,68.80
2023-03-26T06:20:21.271Z,68.60
2023-03-26T06:22:51.090Z,68.20
2023-03-26T06:25:38.102Z,68.00
2023-03-26T06:28:44.510Z,67.80
2023-03-26T06:31:25.848Z,67.60
2023-03-26T06:34:12.865Z,67.60
2023-03-26T06:36:42.073Z,67.20
2023-03-26T06:39:10.052Z,66.80
2023-03-26T06:41:43.859Z,66.80
2023-03-26T06:44:22.468Z,66.50
2023-03-26T06:47:13.239Z,66.50
2023-03-26T06:49:59.917Z,66.50
2023-03-26T06:52:32.206Z,66.30
2023-03-26T06:55:18.738Z,66.20
2023-03-26T06:58:02.553Z,66.10
2023-03-26T07:01:08.588Z,66.30
2023-03-26T07:04:14.569Z,66.10
2023-03-26T07:07:08.562Z,66.00
2023-03-26T07:09:56.485Z,65.90
2023-03-26T07:12:46.974Z,65.90
2023-03-26T07:15:24.062Z,65.70
2023-03-26T07:18:10.624Z,65.90
2023-03-26T07:20:42.308Z,66.70
2023-03-26T07:23:11.643Z,66.30
2023-03-26T07:26:02.738Z,66.20
2023-03-26T07:29:04.209Z,66.10
2023-03-26T07:32:10.427Z,65.60
2023-03-26T07:35:10.814Z,65.50
2023-03-26T07:38:14.875Z,65.20
2023-03-26T07:41:03.240Z,65.10
2023-03-26T07:44:08.920Z,65.60
2023-03-26T07:46:48.929Z,67.20
2023-03-26T07:49:32.678Z,70.60
2023-03-26T07:52:21.899Z,71.50
2023-03-26T07:55:18.166Z,70.50
2023-03-26T07:58:20.688Z,69.40
2023-03-26T08:01:14.114Z,69.50
2023-03-26T08:03:58.655Z,70.90
2023-03-26T08:07:27.666Z,70.30
2023-03-26T08:10:26.960Z,70.10
2023-03-26T08:13:07.889Z,69.40
2023-03-26T08:15:41.179Z,68.80
2023-03-26T08:18:27.094Z,68.30
2023-03-26T08:20:59.299Z,67.60
2023-03-26T08:23:32.897Z,68.20
2023-03-26T08:26:06.034Z,68.30
2023-03-26T08:28:48.525Z,68.70
2023-03-26T08:31:17.728Z,69.20
2023-03-26T08:33:47.091Z,67.70
2023-03-26T08:36:14.903Z,68.10
2023-03-26T08:38:42.941Z,68.10
2023-03-26T08:41:59.579Z,67.70
2023-03-26T08:44:57.607Z,67.20
2023-03-26T08:47:49.344Z,67.00
2023-03-26T08:50:36.351Z,66.90
2023-03-26T08:53:36.693Z,67.00
2023-03-26T08:56:18.760Z,67.40
2023-03-26T08:59:12.494Z,67.00
2023-03-26T09:02:15.267Z,66.50
2023-03-26T09:05:10.378Z,66.40
2023-03-26T09:07:57.586Z,66.40
2023-03-26T09:10:54.153Z,66.10
2023-03-26T09:13:53.530Z,66.10
2023-03-26T09:16:39.138Z,65.80
2023-03-26T09:19:31.980Z,65.10
2023-03-26T09:22:31.494Z,65.40
2023-03-26T09:25:27.110Z,65.10
2023-03-26T09:28:15.636Z,64.80
2023-03-26T09:31:08.640Z,64.10
2023-03-26T09:34:00.468Z,65.00
2023-03-26T09:36:53.885Z,64.60
2023-03-26T09:39:37.352Z,64.40
2023-03-26T09:42:17.171Z,64.90
2023-03-26T09:45:17.782Z,64.70
2023-03-26T09:48:23.803Z,64.20
2023-03-26T09:51:07.131Z,64.70
2023-03-26T09:53:50.587Z,64.80
2023-03-26T09:56:30.136Z,64.30
2023-03-26T09:59:23.518Z,64.40
2023-03-26T10:02:04.398Z,64.30
2023-03-26T10:05:05.705Z,63.90
2023-03-26T10:07:52.405Z,63.90
2023-03-26T10:10:29.394Z,63.60
2023-03-26T10:13:13.896Z,64.00
2023-03-26T10:16:00.542Z,64.20
2023-03-26T10:18:39.457Z,64.20
2023-03-26T10:21:16.972Z,64.30
2023-03-26T10:24:11.034Z,64.40
2023-03-26T10:27:08.384Z,64.70
2023-03-26T10:30:08.207Z,64.50
2023-03-26T10:32:46.575Z,64.40
2023-03-26T10:35:25.821Z,64.30
2023-03-26T10:38:08.106Z,66.40
2023-03-26T10:40:43.701Z,68.50
2023-03-26T10:43:54.692Z,69.20
2023-03-26T10:47:08.994Z,70.30
2023-03-26T10:50:03.827Z,70.30
2023-03-26T10:52:38.348Z,68.20
2023-03-26T10:55:14.237Z,66.60
2023-03-26T10:57:46.758Z,65.90
2023-03-26T11:00:20.542Z,65.30
2023-03-26T11:03:02.854Z,64.90
2023-03-26T11:05:47.260Z,64.60
2023-03-26T11:08:31.610Z,64.30
2023-03-26T11:11:06.195Z,64.10
2023-03-26T11:13:47.526Z,63.80
2023-03-26T11:16:22.768Z,63.70
2023-03-26T11:18:56.174Z,63.70
2023-03-26T11:21:30.968Z,63.60
2023-03-26T11:24:19.492Z,63.50
2023-03-26T11:26:55.541Z,63.50
2023-03-26T11:29:44.122Z,63.60
2023-03-26T11:32:14.631Z,63.60
2023-03-26T11:34:58.172Z,63.60
2023-03-26T11:37:33.027Z,63.60
2023-03-26T11:40:06.533Z,63.30
2023-03-26T11:42:34.444Z,63.00
2023-03-26T11:45:06.427Z,63.10
2023-03-26T11:47:41.558Z,63.10
2023-03-26T11:50:17.581Z,62.90
2023-03-26T11:52:47.074Z,62.70
2023-03-26T11:55:15.755Z,62.70
2023-03-26T11:57:51.042Z,62.60
2023-03-26T12:00:22.982Z,62.50
2023-03-26T12:02:56.669Z,62.40
2023-03-26T12:05:33.270Z,62.40
2023-03-26T12:08:06.926Z,62.40
2023-03-26T12:10:38.606Z,62.40
2023-03-26T12:13:33.213Z,62.50
2023-03-26T12:16:07.568Z,62.60
2023-03-26T12:18:35.775Z,62.70
2023-03-26T12:21:08.553Z,62.80
2023-03-26T12:23:52.363Z,62.90
2023-03-26T12:26:22.242Z,63.00
2023-03-26T12:28:52.054Z,63.10
2023-03-26T12:31:20.375Z,63.10
2023-03-26T12:34:05.867Z,63.30
2023-03-26T12:36:35.745Z,63.40
2023-03-26T12:40:10.094Z,63.40
2023-03-26T12:44:49.799Z,63.40
2023-03-26T12:45:15.934Z,63.50
2023-03-26T12:47:59.071Z,63.50
2023-03-26T12:50:37.775Z,63.60
2023-03-26T12:53:22.015Z,63.60
2023-03-26T12:56:00.599Z,63.60
2023-03-26T12:58:51.306Z,63.70
2023-03-26T13:01:35.299Z,63.80
2023-03-26T13:04:23.877Z,64.00
2023-03-26T13:07:02.066Z,64.00
2023-03-26T13:09:46.561Z,64.00
2023-03-26T13:12:28.323Z,64.10
2023-03-26T13:15:05.397Z,64.10
2023-03-26T13:17:41.003Z,64.20
2023-03-26T13:20:15.588Z,64.30
2023-03-26T13:22:52.775Z,64.30
2023-03-26T13:25:32.728Z,64.30
2023-03-26T13:28:20.060Z,64.30
2023-03-26T13:30:54.658Z,64.30
2023-03-26T13:33:36.393Z,64.20
2023-03-26T13:36:22.348Z,64.20
2023-03-26T13:39:04.821Z,64.20
2023-03-26T13:41:48.590Z,64.20
2023-03-26T13:44:31.526Z,64.20
2023-03-26T13:47:03.630Z,64.20
2023-03-26T13:49:37.194Z,64.30
2023-03-26T13:52:09.543Z,64.40
2023-03-26T13:54:45.311Z,64.60
2023-03-26T13:57:19.937Z,64.70
2023-03-26T13:59:57.277Z,64.70
2023-03-26T14:02:31.999Z,64.80
2023-03-26T14:05:06.581Z,64.80
2023-03-26T14:07:40.025Z,64.90
2023-03-26T14:10:12.559Z,64.90
2023-03-26T14:12:51.198Z,65.00
2023-03-26T14:15:26.688Z,65.10
2023-03-26T14:18:06.691Z,65.10
2023-03-26T14:20:56.741Z,65.10
2023-03-26T14:23:39.864Z,65.20
2023-03-26T14:26:17.439Z,65.20
2023-03-26T14:29:20.512Z,65.30
2023-03-26T14:31:59.261Z,65.10
2023-03-26T14:34:38.752Z,65.00
2023-03-26T14:37:35.564Z,64.70
2023-03-26T14:40:26.548Z,63.60
2023-03-26T14:43:05.327Z,66.60
2023-03-26T14:46:00.589Z,64.70
2023-03-26T14:48:55.261Z,68.80
2023-03-26T14:51:34.444Z,69.40
2023-03-26T14:54:06.836Z,68.70
2023-03-26T14:56:54.039Z,69.60
2023-03-26T14:59:51.140Z,68.90
2023-03-26T15:02:54.424Z,68.90
2023-03-26T15:06:05.458Z,69.60
2023-03-26T15:09:17.441Z,70.20
2023-03-26T15:11:54.437Z,68.60
2023-03-26T15:15:16.816Z,69.30
2023-03-26T15:18:19.219Z,67.60
2023-03-26T15:21:19.461Z,68.80
2023-03-26T15:24:23.683Z,68.10
2023-03-26T15:27:33.429Z,67.80
2023-03-26T15:30:43.340Z,68.20
2023-03-26T15:33:58.816Z,68.70
2023-03-26T15:37:03.049Z,68.20
2023-03-26T15:39:59.829Z,68.40
2023-03-26T15:42:38.072Z,70.20
2023-03-26T15:45:31.951Z,69.50
2023-03-26T15:48:37.339Z,68.50
2023-03-26T15:51:32.937Z,67.60
2023-03-26T15:54:24.042Z,66.90
2023-03-26T15:57:16.899Z,65.70
2023-03-26T15:59:57.371Z,67.10
2023-03-26T16:02:37.827Z,66.20
2023-03-26T16:05:28.296Z,65.70
2023-03-26T16:08:04.369Z,66.70
2023-03-26T16:10:44.559Z,66.30
2023-03-26T16:13:40.547Z,65.10
2023-03-26T16:16:26.073Z,64.90
2023-03-26T16:18:59.406Z,64.70
2023-03-26T16:21:55.679Z,64.70
2023-03-26T16:24:29.395Z,65.10
2023-03-26T16:27:26.138Z,65.20
2023-03-26T16:30:26.385Z,65.60
2023-03-26T16:32:58.462Z,64.50
2023-03-26T16:35:53.995Z,63.40
2023-03-26T16:38:27.081Z,64.40
2023-03-26T16:41:02.942Z,61.40
2023-03-26T16:44:06.813Z,65.10
2023-03-26T16:46:44.772Z,63.00
2023-03-26T16:49:31.871Z,61.90
2023-03-26T16:52:09.545Z,64.30
2023-03-26T16:54:46.091Z,62.50
2023-03-26T16:57:27.063Z,63.90
2023-03-26T17:00:16.364Z,63.00
2023-03-26T17:02:56.642Z,62.70
2023-03-26T17:05:34.940Z,63.20
2023-03-26T17:08:10.549Z,62.30
2023-03-26T17:10:46.302Z,61.90
2023-03-26T17:13:23.348Z,61.00
2023-03-26T17:16:02.358Z,61.90
2023-03-26T17:18:39.844Z,60.40
2023-03-26T17:21:16.002Z,61.60
2023-03-26T17:24:06.701Z,59.60
2023-03-26T17:26:53.144Z,61.40
2023-03-26T17:29:28.250Z,59.80
2023-03-26T17:32:08.457Z,59.70
2023-03-26T17:35:03.536Z,60.00
2023-03-26T17:37:49.872Z,61.10
2023-03-26T17:40:47.553Z,59.90
2023-03-26T17:43:35.297Z,61.30
2023-03-26T17:46:06.136Z,61.10
2023-03-26T17:48:38.711Z,59.60
2023-03-26T17:51:28.531Z,59.90
2023-03-26T17:53:57.441Z,60.90
2023-03-26T17:56:32.011Z,58.90
2023-03-26T17:59:12.157Z,58.50
2023-03-26T18:01:43.924Z,60.20
2023-03-26T18:04:19.820Z,58.80
2023-03-26T18:07:11.842Z,60.30
2023-03-26T18:09:54.270Z,58.70
2023-03-26T18:12:37.411Z,58.60
2023-03-26T18:15:31.385Z,59.40
2023-03-26T18:18:09.477Z,57.90
2023-03-26T18:20:38.463Z,58.60
2023-03-26T18:23:19.877Z,58.20
2023-03-26T18:25:53.139Z,58.90
2023-03-26T18:28:30.931Z,59.60
2023-03-26T18:31:09.988Z,56.80
2023-03-26T18:33:44.357Z,58.20
2023-03-26T18:36:13.253Z,58.40
2023-03-26T18:38:43.170Z,57.40
2023-03-26T18:41:28.252Z,59.60
2023-03-26T18:43:57.302Z,58.40
2023-03-26T18:46:25.759Z,59.20
2023-03-26T18:48:55.514Z,57.40
2023-03-26T18:51:26.540Z,58.40
2023-03-26T18:53:59.562Z,58.00
2023-03-26T18:56:33.758Z,59.10
2023-03-26T18:59:03.740Z,57.70
2023-03-26T19:01:33.373Z,57.90
2023-03-26T19:04:05.151Z,58.10
2023-03-26T19:06:38.081Z,57.90
2023-03-26T19:09:23.673Z,58.00
2023-03-26T19:11:58.174Z,58.00
2023-03-26T19:14:28.408Z,56.20
2023-03-26T19:17:01.396Z,59.40
2023-03-26T19:19:32.938Z,58.60
2023-03-26T19:22:02.611Z,58.60
2023-03-26T19:24:32.528Z,58.20
2023-03-26T19:27:01.035Z,58.10
2023-03-26T19:29:33.343Z,58.10
2023-03-26T19:32:06.198Z,57.80
2023-03-26T19:34:35.774Z,58.20
2023-03-26T19:37:17.114Z,57.90
2023-03-26T19:39:48.961Z,57.70
2023-03-26T19:42:20.897Z,57.50
2023-03-26T19:44:50.531Z,57.70
2023-03-26T19:47:22.024Z,58.00
2023-03-26T19:49:55.859Z,57.70
2023-03-26T19:52:26.233Z,57.10
2023-03-26T19:55:01.137Z,56.90
2023-03-26T19:57:31.847Z,57.70
2023-03-26T20:00:00.525Z,56.90
2023-03-26T20:02:28.966Z,57.40
2023-03-26T20:04:56.905Z,57.30
2023-03-26T20:07:35.630Z,57.50
2023-03-26T20:10:07.959Z,57.90
2023-03-26T20:12:35.992Z,57.80
2023-03-26T20:15:19.609Z,57.90
2023-03-26T20:17:50.647Z,58.00
2023-03-26T20:20:19.260Z,58.20
2023-03-26T20:22:47.275Z,58.30
2023-03-26T20:25:20.262Z,58.30
2023-03-26T20:27:48.431Z,58.20
2023-03-26T20:30:22.307Z,58.50
2023-03-26T20:33:12.918Z,58.40
2023-03-26T20:35:42.582Z,58.20
2023-03-26T20:38:10.396Z,58.30
2023-03-26T20:40:40.392Z,58.40
2023-03-26T20:43:13.062Z,58.60
2023-03-26T20:45:41.027Z,58.10
2023-03-26T20:48:10.121Z,58.50
2023-03-26T20:51:01.531Z,58.40
2023-03-26T20:53:30.350Z,58.50
2023-03-26T20:55:59.961Z,57.50
2023-03-26T20:58:31.119Z,58.90
2023-03-26T21:01:01.796Z,58.50
2023-03-26T21:03:29.946Z,58.20
2023-03-26T21:06:01.194Z,58.50
2023-03-26T21:08:34.990Z,58.40
2023-03-26T21:11:06.307Z,58.20
2023-03-26T21:13:39.877Z,58.40
2023-03-26T21:16:14.468Z,58.30
2023-03-26T21:18:43.401Z,58.70
2023-03-26T21:21:27.880Z,58.30
2023-03-26T21:24:03.165Z,58.60
2023-03-26T21:26:42.693Z,58.70
2023-03-26T21:29:11.698Z,58.70
2023-03-26T21:31:40.379Z,58.80
2023-03-26T21:34:09.422Z,58.30
2023-03-26T21:36:37.850Z,59.00
2023-03-26T21:39:06.390Z,58.80
2023-03-26T21:41:43.536Z,59.20
2023-03-26T21:44:12.022Z,58.30
2023-03-26T21:46:42.691Z,59.20
2023-03-26T21:49:11.269Z,58.90
2023-03-26T21:51:39.719Z,59.20
2023-03-26T21:54:24.493Z,59.10
2023-03-26T21:57:14.967Z,59.40
2023-03-26T21:59:51.624Z,59.30
2023-03-26T22:02:24.904Z,59.60
2023-03-26T22:04:58.309Z,59.10
2023-03-26T22:07:31.828Z,59.10
2023-03-26T22:09:59.664Z,59.40
2023-03-26T22:12:28.841Z,59.10
2023-03-26T22:14:56.875Z,59.30
2023-03-26T22:17:24.736Z,59.10
2023-03-26T22:19:52.524Z,59.10
2023-03-26T22:22:22.061Z,59.10
2023-03-26T22:24:49.919Z,59.30
2023-03-26T22:27:17.744Z,59.10
2023-03-26T22:29:47.229Z,59.00
2023-03-26T22:32:15.113Z,58.90
2023-03-26T22:34:44.848Z,59.10
2023-03-26T22:37:13.406Z,59.10
2023-03-26T22:39:41.316Z,58.70
2023-03-26T22:42:09.271Z,58.90
2023-03-26T22:44:37.118Z,58.90
2023-03-26T22:47:06.318Z,59.10
2023-03-26T22:49:34.126Z,58.90
2023-03-26T22:52:02.036Z,59.20
2023-03-26T22:54:29.812Z,59.00
2023-03-26T22:56:57.648Z,58.90
2023-03-26T22:59:25.719Z,59.10
2023-03-26T23:01:54.026Z,58.90
2023-03-26T23:04:31.463Z,58.70
2023-03-26T23:06:59.610Z,59.30
2023-03-26T23:09:27.448Z,59.30
2023-03-26T23:11:55.259Z,59.40
2023-03-26T23:14:23.547Z,59.20
2023-03-26T23:16:51.676Z,59.40
2023-03-26T23:19:19.501Z,59.20
2023-03-26T23:21:48.785Z,59.50
2023-03-26T23:24:17.253Z,59.30
2023-03-26T23:26:50.807Z,59.50
2023-03-26T23:29:19.224Z,59.40
2023-03-26T23:31:47.080Z,59.60
2023-03-26T23:34:16.325Z,59.60
2023-03-26T23:36:44.669Z,59.70
2023-03-26T23:39:13.887Z,59.90
2023-03-26T23:41:41.712Z,59.90
2023-03-26T23:44:13.380Z,59.90
2023-03-26T23:46:42.602Z,60.00
2023-03-26T23:49:11.939Z,60.60
2023-03-26T23:51:39.746Z,60.20
2023-03-26T23:54:08.505Z,59.80
2023-03-26T23:56:37.959Z,59.80
2023-03-26T23:59:06.052Z,59.60
